sensor_id;sensor_type;location;lat;lon;timestamp;P1;durP1;ratioP1;P2;durP2;ratioP2
22131;SDS011;11232;51.748;19.390;2023-01-29T00:02:09;11.87;;;6.37;;
22131;SDS011;11232;51.748;19.390;2023-01-29T00:04:35;11.57;;;6.10;;
22131;SDS011;11232;51.748;19.390;2023-01-29T00:07:00;13.53;;;6.07;;
22131;SDS011;11232;51.748;19.390;2023-01-29T00:09:27;11.93;;;6.13;;
22131;SDS011;11232;51.748;19.390;2023-01-29T00:11:53;10.70;;;5.80;;
22131;SDS011;11232;51.748;19.390;2023-01-29T00:14:19;13.20;;;6.20;;
22131;SDS011;11232;51.748;19.390;2023-01-29T00:16:45;11.40;;;5.63;;
22131;SDS011;11232;51.748;19.390;2023-01-29T00:19:11;13.43;;;6.77;;
22131;SDS011;11232;51.748;19.390;2023-01-29T00:21:37;12.97;;;5.63;;
22131;SDS011;11232;51.748;19.390;2023-01-29T00:24:03;12.87;;;5.90;;
22131;SDS011;11232;51.748;19.390;2023-01-29T00:26:29;15.33;;;6.60;;
22131;SDS011;11232;51.748;19.390;2023-01-29T00:28:55;14.63;;;6.30;;
22131;SDS011;11232;51.748;19.390;2023-01-29T00:31:22;13.03;;;6.57;;
22131;SDS011;11232;51.748;19.390;2023-01-29T00:33:48;11.77;;;6.10;;
22131;SDS011;11232;51.748;19.390;2023-01-29T00:36:15;17.07;;;6.43;;
22131;SDS011;11232;51.748;19.390;2023-01-29T00:38:42;10.70;;;6.27;;
22131;SDS011;11232;51.748;19.390;2023-01-29T00:41:09;14.90;;;6.63;;
22131;SDS011;11232;51.748;19.390;2023-01-29T00:43:55;12.00;;;6.53;;
22131;SDS011;11232;51.748;19.390;2023-01-29T00:46:40;10.67;;;6.30;;
22131;SDS011;11232;51.748;19.390;2023-01-29T00:49:06;10.77;;;6.20;;
22131;SDS011;11232;51.748;19.390;2023-01-29T00:51:33;13.83;;;6.33;;
22131;SDS011;11232;51.748;19.390;2023-01-29T00:53:59;10.17;;;6.00;;
22131;SDS011;11232;51.748;19.390;2023-01-29T00:56:25;12.73;;;6.13;;
22131;SDS011;11232;51.748;19.390;2023-01-29T00:58:51;11.30;;;5.70;;
22131;SDS011;11232;51.748;19.390;2023-01-29T01:01:17;11.17;;;5.80;;
22131;SDS011;11232;51.748;19.390;2023-01-29T01:04:07;11.30;;;6.13;;
22131;SDS011;11232;51.748;19.390;2023-01-29T01:06:35;13.83;;;5.93;;
22131;SDS011;11232;51.748;19.390;2023-01-29T01:09:01;9.73;;;5.93;;
22131;SDS011;11232;51.748;19.390;2023-01-29T01:11:46;11.13;;;5.00;;
22131;SDS011;11232;51.748;19.390;2023-01-29T01:14:12;8.33;;;4.70;;
22131;SDS011;11232;51.748;19.390;2023-01-29T01:16:38;9.23;;;4.80;;
22131;SDS011;11232;51.748;19.390;2023-01-29T01:19:04;8.97;;;5.47;;
22131;SDS011;11232;51.748;19.390;2023-01-29T01:21:31;9.07;;;4.67;;
22131;SDS011;11232;51.748;19.390;2023-01-29T01:23:57;15.20;;;5.73;;
22131;SDS011;11232;51.748;19.390;2023-01-29T01:26:23;10.47;;;5.33;;
22131;SDS011;11232;51.748;19.390;2023-01-29T01:28:49;8.93;;;4.87;;
22131;SDS011;11232;51.748;19.390;2023-01-29T01:31:15;12.40;;;5.90;;
22131;SDS011;11232;51.748;19.390;2023-01-29T01:33:41;11.17;;;4.47;;
22131;SDS011;11232;51.748;19.390;2023-01-29T01:36:07;10.17;;;4.93;;
22131;SDS011;11232;51.748;19.390;2023-01-29T01:38:35;10.07;;;5.50;;
22131;SDS011;11232;51.748;19.390;2023-01-29T01:41:08;8.37;;;4.63;;
22131;SDS011;11232;51.748;19.390;2023-01-29T01:46:15;11.80;;;5.37;;
22131;SDS011;11232;51.748;19.390;2023-01-29T01:48:41;9.97;;;5.10;;
22131;SDS011;11232;51.748;19.390;2023-01-29T01:51:07;9.00;;;4.90;;
22131;SDS011;11232;51.748;19.390;2023-01-29T01:53:38;8.03;;;5.50;;
22131;SDS011;11232;51.748;19.390;2023-01-29T01:56:06;9.63;;;5.40;;
22131;SDS011;11232;51.748;19.390;2023-01-29T01:58:33;12.53;;;5.90;;
22131;SDS011;11232;51.748;19.390;2023-01-29T02:01:02;13.43;;;6.23;;
22131;SDS011;11232;51.748;19.390;2023-01-29T02:03:29;11.53;;;5.90;;
22131;SDS011;11232;51.748;19.390;2023-01-29T02:06:15;11.80;;;6.10;;
22131;SDS011;11232;51.748;19.390;2023-01-29T02:11:44;14.00;;;7.60;;
22131;SDS011;11232;51.748;19.390;2023-01-29T02:14:10;17.03;;;8.50;;
22131;SDS011;11232;51.748;19.390;2023-01-29T02:16:36;15.43;;;7.80;;
22131;SDS011;11232;51.748;19.390;2023-01-29T02:19:09;17.83;;;7.80;;
22131;SDS011;11232;51.748;19.390;2023-01-29T02:26:54;13.87;;;8.07;;
22131;SDS011;11232;51.748;19.390;2023-01-29T02:34:45;18.17;;;8.53;;
22131;SDS011;11232;51.748;19.390;2023-01-29T02:37:34;16.70;;;7.57;;
22131;SDS011;11232;51.748;19.390;2023-01-29T02:45:32;16.33;;;8.33;;
22131;SDS011;11232;51.748;19.390;2023-01-29T02:48:00;18.50;;;8.63;;
22131;SDS011;11232;51.748;19.390;2023-01-29T02:55:31;20.07;;;8.87;;
22131;SDS011;11232;51.748;19.390;2023-01-29T02:58:07;19.90;;;9.43;;
22131;SDS011;11232;51.748;19.390;2023-01-29T03:00:35;17.57;;;8.90;;
22131;SDS011;11232;51.748;19.390;2023-01-29T03:03:07;18.43;;;9.17;;
22131;SDS011;11232;51.748;19.390;2023-01-29T03:08:15;16.63;;;8.77;;
22131;SDS011;11232;51.748;19.390;2023-01-29T03:10:47;18.87;;;8.43;;
22131;SDS011;11232;51.748;19.390;2023-01-29T03:13:19;17.17;;;8.27;;
22131;SDS011;11232;51.748;19.390;2023-01-29T03:15:48;15.67;;;7.53;;
22131;SDS011;11232;51.748;19.390;2023-01-29T03:18:25;16.70;;;7.93;;
22131;SDS011;11232;51.748;19.390;2023-01-29T03:20:55;14.53;;;8.03;;
22131;SDS011;11232;51.748;19.390;2023-01-29T03:23:24;17.20;;;7.23;;
22131;SDS011;11232;51.748;19.390;2023-01-29T03:26:12;15.63;;;7.97;;
22131;SDS011;11232;51.748;19.390;2023-01-29T03:28:59;15.40;;;7.60;;
22131;SDS011;11232;51.748;19.390;2023-01-29T03:31:45;13.83;;;7.50;;
22131;SDS011;11232;51.748;19.390;2023-01-29T03:34:32;15.40;;;7.60;;
22131;SDS011;11232;51.748;19.390;2023-01-29T03:37:17;17.27;;;8.20;;
22131;SDS011;11232;51.748;19.390;2023-01-29T03:39:45;16.97;;;7.87;;
22131;SDS011;11232;51.748;19.390;2023-01-29T03:44:52;15.63;;;7.77;;
22131;SDS011;11232;51.748;19.390;2023-01-29T03:47:20;15.00;;;6.77;;
22131;SDS011;11232;51.748;19.390;2023-01-29T03:54:59;15.13;;;7.60;;
22131;SDS011;11232;51.748;19.390;2023-01-29T03:57:34;13.77;;;7.37;;
22131;SDS011;11232;51.748;19.390;2023-01-29T04:02:34;11.10;;;7.07;;
22131;SDS011;11232;51.748;19.390;2023-01-29T04:05:04;15.33;;;7.53;;
22131;SDS011;11232;51.748;19.390;2023-01-29T04:07:30;15.67;;;6.87;;
22131;SDS011;11232;51.748;19.390;2023-01-29T04:10:07;13.30;;;6.77;;
22131;SDS011;11232;51.748;19.390;2023-01-29T04:12:39;12.70;;;7.10;;
22131;SDS011;11232;51.748;19.390;2023-01-29T04:15:08;15.93;;;6.80;;
22131;SDS011;11232;51.748;19.390;2023-01-29T04:17:39;14.93;;;7.27;;
22131;SDS011;11232;51.748;19.390;2023-01-29T04:20:05;14.47;;;7.30;;
22131;SDS011;11232;51.748;19.390;2023-01-29T04:22:32;14.97;;;7.10;;
22131;SDS011;11232;51.748;19.390;2023-01-29T04:24:59;18.70;;;8.03;;
22131;SDS011;11232;51.748;19.390;2023-01-29T04:27:36;15.67;;;8.37;;
22131;SDS011;11232;51.748;19.390;2023-01-29T04:30:08;15.20;;;7.73;;
22131;SDS011;11232;51.748;19.390;2023-01-29T04:32:51;13.17;;;7.40;;
22131;SDS011;11232;51.748;19.390;2023-01-29T04:46:02;15.80;;;7.23;;
22131;SDS011;11232;51.748;19.390;2023-01-29T04:48:40;16.57;;;8.33;;
22131;SDS011;11232;51.748;19.390;2023-01-29T04:53:56;14.37;;;7.67;;
22131;SDS011;11232;51.748;19.390;2023-01-29T04:56:39;16.80;;;7.90;;
22131;SDS011;11232;51.748;19.390;2023-01-29T04:59:07;22.40;;;9.37;;
22131;SDS011;11232;51.748;19.390;2023-01-29T05:01:34;17.13;;;8.17;;
22131;SDS011;11232;51.748;19.390;2023-01-29T05:04:01;19.67;;;9.37;;
22131;SDS011;11232;51.748;19.390;2023-01-29T05:06:29;18.90;;;8.37;;
22131;SDS011;11232;51.748;19.390;2023-01-29T05:08:56;17.63;;;8.97;;
22131;SDS011;11232;51.748;19.390;2023-01-29T05:11:24;19.30;;;8.07;;
22131;SDS011;11232;51.748;19.390;2023-01-29T05:14:04;16.63;;;8.43;;
22131;SDS011;11232;51.748;19.390;2023-01-29T05:16:33;22.27;;;9.30;;
22131;SDS011;11232;51.748;19.390;2023-01-29T05:19:06;16.87;;;9.07;;
22131;SDS011;11232;51.748;19.390;2023-01-29T05:21:32;21.03;;;8.80;;
22131;SDS011;11232;51.748;19.390;2023-01-29T05:24:19;18.07;;;7.83;;
22131;SDS011;11232;51.748;19.390;2023-01-29T05:26:46;16.93;;;8.50;;
22131;SDS011;11232;51.748;19.390;2023-01-29T05:29:31;18.93;;;8.40;;
22131;SDS011;11232;51.748;19.390;2023-01-29T05:31:57;18.30;;;8.07;;
22131;SDS011;11232;51.748;19.390;2023-01-29T05:34:23;18.90;;;8.33;;
22131;SDS011;11232;51.748;19.390;2023-01-29T05:36:49;20.40;;;8.57;;
22131;SDS011;11232;51.748;19.390;2023-01-29T05:39:15;18.17;;;8.20;;
22131;SDS011;11232;51.748;19.390;2023-01-29T05:41:41;17.17;;;8.43;;
22131;SDS011;11232;51.748;19.390;2023-01-29T05:44:11;18.23;;;8.27;;
22131;SDS011;11232;51.748;19.390;2023-01-29T05:46:37;21.03;;;8.13;;
22131;SDS011;11232;51.748;19.390;2023-01-29T05:49:03;17.53;;;8.60;;
22131;SDS011;11232;51.748;19.390;2023-01-29T05:51:29;21.17;;;8.60;;
22131;SDS011;11232;51.748;19.390;2023-01-29T05:53:55;18.60;;;7.93;;
22131;SDS011;11232;51.748;19.390;2023-01-29T05:56:21;19.80;;;8.50;;
22131;SDS011;11232;51.748;19.390;2023-01-29T05:58:47;15.20;;;7.83;;
22131;SDS011;11232;51.748;19.390;2023-01-29T06:01:20;18.87;;;8.27;;
22131;SDS011;11232;51.748;19.390;2023-01-29T06:03:47;17.57;;;8.13;;
22131;SDS011;11232;51.748;19.390;2023-01-29T06:06:13;16.10;;;7.80;;
22131;SDS011;11232;51.748;19.390;2023-01-29T06:08:39;14.37;;;8.27;;
22131;SDS011;11232;51.748;19.390;2023-01-29T06:11:06;15.10;;;8.30;;
22131;SDS011;11232;51.748;19.390;2023-01-29T06:13:32;23.37;;;9.00;;
22131;SDS011;11232;51.748;19.390;2023-01-29T06:15:58;17.13;;;8.73;;
22131;SDS011;11232;51.748;19.390;2023-01-29T06:18:24;16.87;;;8.60;;
22131;SDS011;11232;51.748;19.390;2023-01-29T06:20:50;15.00;;;7.33;;
22131;SDS011;11232;51.748;19.390;2023-01-29T06:23:16;18.83;;;8.57;;
22131;SDS011;11232;51.748;19.390;2023-01-29T06:25:42;18.13;;;8.27;;
22131;SDS011;11232;51.748;19.390;2023-01-29T06:28:08;21.03;;;8.30;;
22131;SDS011;11232;51.748;19.390;2023-01-29T06:30:34;18.70;;;8.43;;
22131;SDS011;11232;51.748;19.390;2023-01-29T06:33:00;16.23;;;8.17;;
22131;SDS011;11232;51.748;19.390;2023-01-29T06:35:26;17.23;;;8.30;;
22131;SDS011;11232;51.748;19.390;2023-01-29T06:37:53;18.40;;;8.70;;
22131;SDS011;11232;51.748;19.390;2023-01-29T06:40:19;18.60;;;8.17;;
22131;SDS011;11232;51.748;19.390;2023-01-29T06:42:45;16.60;;;8.20;;
22131;SDS011;11232;51.748;19.390;2023-01-29T06:45:11;16.77;;;8.03;;
22131;SDS011;11232;51.748;19.390;2023-01-29T06:47:37;17.83;;;8.20;;
22131;SDS011;11232;51.748;19.390;2023-01-29T06:50:03;17.83;;;8.73;;
22131;SDS011;11232;51.748;19.390;2023-01-29T06:52:29;19.17;;;8.80;;
22131;SDS011;11232;51.748;19.390;2023-01-29T06:54:55;15.03;;;7.87;;
22131;SDS011;11232;51.748;19.390;2023-01-29T06:57:21;14.87;;;7.33;;
22131;SDS011;11232;51.748;19.390;2023-01-29T06:59:47;16.57;;;7.30;;
22131;SDS011;11232;51.748;19.390;2023-01-29T07:02:13;15.10;;;7.27;;
22131;SDS011;11232;51.748;19.390;2023-01-29T07:04:39;13.53;;;7.27;;
22131;SDS011;11232;51.748;19.390;2023-01-29T07:07:06;17.57;;;8.00;;
22131;SDS011;11232;51.748;19.390;2023-01-29T07:09:38;21.93;;;7.63;;
22131;SDS011;11232;51.748;19.390;2023-01-29T07:12:05;16.50;;;7.70;;
22131;SDS011;11232;51.748;19.390;2023-01-29T07:14:31;12.80;;;6.73;;
22131;SDS011;11232;51.748;19.390;2023-01-29T07:16:57;18.00;;;7.93;;
22131;SDS011;11232;51.748;19.390;2023-01-29T07:19:23;20.53;;;7.43;;
22131;SDS011;11232;51.748;19.390;2023-01-29T07:21:49;18.03;;;7.20;;
22131;SDS011;11232;51.748;19.390;2023-01-29T07:24:15;12.40;;;6.30;;
22131;SDS011;11232;51.748;19.390;2023-01-29T07:26:41;15.03;;;6.70;;
22131;SDS011;11232;51.748;19.390;2023-01-29T07:29:07;19.53;;;6.40;;
22131;SDS011;11232;51.748;19.390;2023-01-29T07:31:33;13.23;;;5.93;;
22131;SDS011;11232;51.748;19.390;2023-01-29T07:33:59;10.70;;;5.73;;
22131;SDS011;11232;51.748;19.390;2023-01-29T07:36:25;14.57;;;6.60;;
22131;SDS011;11232;51.748;19.390;2023-01-29T07:38:51;13.03;;;6.40;;
22131;SDS011;11232;51.748;19.390;2023-01-29T07:41:17;14.10;;;6.40;;
22131;SDS011;11232;51.748;19.390;2023-01-29T07:43:43;13.37;;;6.13;;
22131;SDS011;11232;51.748;19.390;2023-01-29T07:46:09;11.10;;;5.57;;
22131;SDS011;11232;51.748;19.390;2023-01-29T07:48:35;12.23;;;5.80;;
22131;SDS011;11232;51.748;19.390;2023-01-29T07:51:01;13.10;;;6.10;;
22131;SDS011;11232;51.748;19.390;2023-01-29T07:53:27;13.53;;;5.50;;
22131;SDS011;11232;51.748;19.390;2023-01-29T07:55:54;9.20;;;5.10;;
22131;SDS011;11232;51.748;19.390;2023-01-29T07:58:20;13.40;;;5.70;;
22131;SDS011;11232;51.748;19.390;2023-01-29T08:00:46;15.33;;;5.77;;
22131;SDS011;11232;51.748;19.390;2023-01-29T08:03:13;13.13;;;5.80;;
22131;SDS011;11232;51.748;19.390;2023-01-29T08:05:44;9.73;;;5.37;;
22131;SDS011;11232;51.748;19.390;2023-01-29T08:08:10;11.00;;;5.23;;
22131;SDS011;11232;51.748;19.390;2023-01-29T08:10:37;12.20;;;5.23;;
22131;SDS011;11232;51.748;19.390;2023-01-29T08:13:03;11.17;;;5.50;;
22131;SDS011;11232;51.748;19.390;2023-01-29T08:15:30;9.77;;;5.60;;
22131;SDS011;11232;51.748;19.390;2023-01-29T08:17:56;13.10;;;5.30;;
22131;SDS011;11232;51.748;19.390;2023-01-29T08:20:22;15.33;;;5.43;;
22131;SDS011;11232;51.748;19.390;2023-01-29T08:22:48;13.17;;;5.43;;
22131;SDS011;11232;51.748;19.390;2023-01-29T08:25:14;13.73;;;5.67;;
22131;SDS011;11232;51.748;19.390;2023-01-29T08:27:40;12.63;;;5.70;;
22131;SDS011;11232;51.748;19.390;2023-01-29T08:30:07;10.17;;;5.33;;
22131;SDS011;11232;51.748;19.390;2023-01-29T08:32:34;14.57;;;5.77;;
22131;SDS011;11232;51.748;19.390;2023-01-29T08:35:00;11.97;;;6.20;;
22131;SDS011;11232;51.748;19.390;2023-01-29T08:37:26;11.90;;;6.03;;
22131;SDS011;11232;51.748;19.390;2023-01-29T08:39:52;11.13;;;5.80;;
22131;SDS011;11232;51.748;19.390;2023-01-29T08:42:18;9.77;;;5.60;;
22131;SDS011;11232;51.748;19.390;2023-01-29T08:44:44;13.60;;;6.40;;
22131;SDS011;11232;51.748;19.390;2023-01-29T08:47:10;14.53;;;6.20;;
22131;SDS011;11232;51.748;19.390;2023-01-29T08:49:36;12.07;;;5.77;;
22131;SDS011;11232;51.748;19.390;2023-01-29T08:52:02;13.97;;;5.53;;
22131;SDS011;11232;51.748;19.390;2023-01-29T08:54:28;12.47;;;5.67;;
22131;SDS011;11232;51.748;19.390;2023-01-29T08:56:54;13.43;;;6.37;;
22131;SDS011;11232;51.748;19.390;2023-01-29T08:59:20;12.23;;;6.47;;
22131;SDS011;11232;51.748;19.390;2023-01-29T09:01:46;12.33;;;6.40;;
22131;SDS011;11232;51.748;19.390;2023-01-29T09:04:12;20.03;;;6.80;;
22131;SDS011;11232;51.748;19.390;2023-01-29T09:06:38;15.93;;;6.90;;
22131;SDS011;11232;51.748;19.390;2023-01-29T09:09:04;13.23;;;6.83;;
22131;SDS011;11232;51.748;19.390;2023-01-29T09:11:30;13.13;;;6.40;;
22131;SDS011;11232;51.748;19.390;2023-01-29T09:13:56;15.60;;;7.07;;
22131;SDS011;11232;51.748;19.390;2023-01-29T09:16:22;15.93;;;7.97;;
22131;SDS011;11232;51.748;19.390;2023-01-29T09:18:48;15.30;;;6.67;;
22131;SDS011;11232;51.748;19.390;2023-01-29T09:21:14;15.33;;;7.63;;
22131;SDS011;11232;51.748;19.390;2023-01-29T09:23:40;16.23;;;7.83;;
22131;SDS011;11232;51.748;19.390;2023-01-29T09:26:06;16.13;;;7.70;;
22131;SDS011;11232;51.748;19.390;2023-01-29T09:28:33;16.00;;;7.83;;
22131;SDS011;11232;51.748;19.390;2023-01-29T09:30:59;13.90;;;7.43;;
22131;SDS011;11232;51.748;19.390;2023-01-29T09:33:26;20.53;;;8.80;;
22131;SDS011;11232;51.748;19.390;2023-01-29T09:35:53;16.43;;;8.17;;
22131;SDS011;11232;51.748;19.390;2023-01-29T09:38:19;19.90;;;8.33;;
22131;SDS011;11232;51.748;19.390;2023-01-29T09:43:18;18.60;;;9.00;;
22131;SDS011;11232;51.748;19.390;2023-01-29T09:45:52;22.87;;;9.77;;
22131;SDS011;11232;51.748;19.390;2023-01-29T09:48:20;20.43;;;8.23;;
22131;SDS011;11232;51.748;19.390;2023-01-29T09:50:47;19.03;;;8.60;;
22131;SDS011;11232;51.748;19.390;2023-01-29T09:53:35;18.77;;;9.17;;
22131;SDS011;11232;51.748;19.390;2023-01-29T09:56:05;18.23;;;8.53;;
22131;SDS011;11232;51.748;19.390;2023-01-29T09:58:35;20.57;;;8.87;;
22131;SDS011;11232;51.748;19.390;2023-01-29T10:11:18;19.40;;;9.17;;
22131;SDS011;11232;51.748;19.390;2023-01-29T10:16:26;19.17;;;9.53;;
22131;SDS011;11232;51.748;19.390;2023-01-29T10:26:23;22.47;;;10.03;;
22131;SDS011;11232;51.748;19.390;2023-01-29T10:28:51;26.40;;;11.10;;
22131;SDS011;11232;51.748;19.390;2023-01-29T10:33:56;22.23;;;10.90;;
22131;SDS011;11232;51.748;19.390;2023-01-29T10:36:25;26.63;;;11.37;;
22131;SDS011;11232;51.748;19.390;2023-01-29T10:38:53;28.23;;;11.97;;
22131;SDS011;11232;51.748;19.390;2023-01-29T10:41:29;26.00;;;12.07;;
22131;SDS011;11232;51.748;19.390;2023-01-29T10:52:15;29.03;;;12.40;;
22131;SDS011;11232;51.748;19.390;2023-01-29T11:00:37;27.53;;;11.67;;
22131;SDS011;11232;51.748;19.390;2023-01-29T11:03:10;29.83;;;13.27;;
22131;SDS011;11232;51.748;19.390;2023-01-29T11:08:27;32.90;;;13.87;;
22131;SDS011;11232;51.748;19.390;2023-01-29T11:11:03;29.53;;;12.53;;
22131;SDS011;11232;51.748;19.390;2023-01-29T11:13:33;37.77;;;14.63;;
22131;SDS011;11232;51.748;19.390;2023-01-29T11:16:02;34.13;;;14.60;;
22131;SDS011;11232;51.748;19.390;2023-01-29T11:18:28;34.70;;;14.33;;
22131;SDS011;11232;51.748;19.390;2023-01-29T11:21:12;35.03;;;15.20;;
22131;SDS011;11232;51.748;19.390;2023-01-29T11:23:38;38.67;;;14.67;;
22131;SDS011;11232;51.748;19.390;2023-01-29T11:26:04;39.43;;;14.30;;
22131;SDS011;11232;51.748;19.390;2023-01-29T11:28:41;37.30;;;16.33;;
22131;SDS011;11232;51.748;19.390;2023-01-29T11:31:19;33.23;;;14.63;;
22131;SDS011;11232;51.748;19.390;2023-01-29T11:33:46;36.97;;;15.23;;
22131;SDS011;11232;51.748;19.390;2023-01-29T11:36:26;38.20;;;15.37;;
22131;SDS011;11232;51.748;19.390;2023-01-29T11:41:42;33.70;;;14.73;;
22131;SDS011;11232;51.748;19.390;2023-01-29T11:44:18;30.73;;;13.73;;
22131;SDS011;11232;51.748;19.390;2023-01-29T11:46:44;37.03;;;15.00;;
22131;SDS011;11232;51.748;19.390;2023-01-29T11:49:21;38.93;;;15.80;;
22131;SDS011;11232;51.748;19.390;2023-01-29T11:51:51;41.37;;;16.33;;
22131;SDS011;11232;51.748;19.390;2023-01-29T11:54:19;36.53;;;15.50;;
22131;SDS011;11232;51.748;19.390;2023-01-29T11:56:46;37.20;;;15.83;;
22131;SDS011;11232;51.748;19.390;2023-01-29T11:59:27;37.20;;;15.90;;
22131;SDS011;11232;51.748;19.390;2023-01-29T12:01:54;39.33;;;16.23;;
22131;SDS011;11232;51.748;19.390;2023-01-29T12:04:21;39.33;;;15.07;;
22131;SDS011;11232;51.748;19.390;2023-01-29T12:06:49;36.20;;;15.33;;
22131;SDS011;11232;51.748;19.390;2023-01-29T12:09:23;40.20;;;16.70;;
22131;SDS011;11232;51.748;19.390;2023-01-29T12:11:53;39.63;;;16.07;;
22131;SDS011;11232;51.748;19.390;2023-01-29T12:14:23;37.27;;;16.50;;
22131;SDS011;11232;51.748;19.390;2023-01-29T12:16:53;39.07;;;15.97;;
22131;SDS011;11232;51.748;19.390;2023-01-29T12:22:09;38.87;;;16.10;;
22131;SDS011;11232;51.748;19.390;2023-01-29T12:27:14;44.27;;;17.30;;
22131;SDS011;11232;51.748;19.390;2023-01-29T12:29:47;42.80;;;17.47;;
22131;SDS011;11232;51.748;19.390;2023-01-29T12:32:28;38.20;;;18.10;;
22131;SDS011;11232;51.748;19.390;2023-01-29T12:35:08;45.00;;;17.60;;
22131;SDS011;11232;51.748;19.390;2023-01-29T12:37:40;43.57;;;17.93;;
22131;SDS011;11232;51.748;19.390;2023-01-29T12:40:13;46.17;;;19.10;;
22131;SDS011;11232;51.748;19.390;2023-01-29T12:42:40;54.20;;;20.73;;
22131;SDS011;11232;51.748;19.390;2023-01-29T12:45:07;46.73;;;19.90;;
22131;SDS011;11232;51.748;19.390;2023-01-29T12:47:39;46.93;;;18.37;;
22131;SDS011;11232;51.748;19.390;2023-01-29T12:50:20;50.67;;;21.07;;
22131;SDS011;11232;51.748;19.390;2023-01-29T12:52:49;48.77;;;19.73;;
22131;SDS011;11232;51.748;19.390;2023-01-29T12:57:46;46.30;;;18.70;;
22131;SDS011;11232;51.748;19.390;2023-01-29T13:00:19;50.43;;;20.93;;
22131;SDS011;11232;51.748;19.390;2023-01-29T13:05:25;50.47;;;20.80;;
22131;SDS011;11232;51.748;19.390;2023-01-29T13:07:56;49.83;;;20.03;;
22131;SDS011;11232;51.748;19.390;2023-01-29T13:10:28;47.37;;;19.53;;
22131;SDS011;11232;51.748;19.390;2023-01-29T13:12:58;47.53;;;19.47;;
22131;SDS011;11232;51.748;19.390;2023-01-29T13:15:28;48.63;;;19.53;;
22131;SDS011;11232;51.748;19.390;2023-01-29T13:17:56;48.37;;;20.57;;
22131;SDS011;11232;51.748;19.390;2023-01-29T13:20:32;47.03;;;19.93;;
22131;SDS011;11232;51.748;19.390;2023-01-29T13:23:11;44.27;;;18.83;;
22131;SDS011;11232;51.748;19.390;2023-01-29T13:25:40;44.57;;;18.23;;
22131;SDS011;11232;51.748;19.390;2023-01-29T13:28:14;44.17;;;19.10;;
22131;SDS011;11232;51.748;19.390;2023-01-29T13:30:40;43.90;;;18.90;;
22131;SDS011;11232;51.748;19.390;2023-01-29T13:33:06;48.10;;;19.87;;
22131;SDS011;11232;51.748;19.390;2023-01-29T13:35:36;43.57;;;19.30;;
22131;SDS011;11232;51.748;19.390;2023-01-29T13:38:03;48.70;;;19.53;;
22131;SDS011;11232;51.748;19.390;2023-01-29T13:40:30;47.93;;;18.57;;
22131;SDS011;11232;51.748;19.390;2023-01-29T13:42:58;44.63;;;19.90;;
22131;SDS011;11232;51.748;19.390;2023-01-29T13:45:30;50.20;;;20.40;;
22131;SDS011;11232;51.748;19.390;2023-01-29T13:48:09;50.17;;;19.43;;
22131;SDS011;11232;51.748;19.390;2023-01-29T13:50:36;48.17;;;20.10;;
22131;SDS011;11232;51.748;19.390;2023-01-29T13:53:03;46.00;;;19.43;;
22131;SDS011;11232;51.748;19.390;2023-01-29T13:55:37;48.80;;;19.90;;
22131;SDS011;11232;51.748;19.390;2023-01-29T13:58:04;48.20;;;20.43;;
22131;SDS011;11232;51.748;19.390;2023-01-29T14:10:27;47.17;;;18.60;;
22131;SDS011;11232;51.748;19.390;2023-01-29T14:18:22;50.97;;;20.20;;
22131;SDS011;11232;51.748;19.390;2023-01-29T14:29:03;48.23;;;19.00;;
22131;SDS011;11232;51.748;19.390;2023-01-29T14:34:00;48.10;;;18.83;;
22131;SDS011;11232;51.748;19.390;2023-01-29T14:36:28;44.23;;;18.17;;
22131;SDS011;11232;51.748;19.390;2023-01-29T14:39:03;51.67;;;19.93;;
22131;SDS011;11232;51.748;19.390;2023-01-29T14:41:32;44.40;;;19.87;;
22131;SDS011;11232;51.748;19.390;2023-01-29T14:44:45;51.57;;;19.40;;
22131;SDS011;11232;51.748;19.390;2023-01-29T14:46:49;54.33;;;19.80;;
22131;SDS011;11232;51.748;19.390;2023-01-29T14:49:46;48.93;;;19.70;;
22131;SDS011;11232;51.748;19.390;2023-01-29T14:52:01;54.40;;;19.70;;
22131;SDS011;11232;51.748;19.390;2023-01-29T14:54:27;55.10;;;21.63;;
22131;SDS011;11232;51.748;19.390;2023-01-29T14:56:58;52.57;;;20.00;;
22131;SDS011;11232;51.748;19.390;2023-01-29T14:59:30;56.93;;;21.20;;
22131;SDS011;11232;51.748;19.390;2023-01-29T15:01:59;63.90;;;22.00;;
22131;SDS011;11232;51.748;19.390;2023-01-29T15:04:38;54.17;;;20.53;;
22131;SDS011;11232;51.748;19.390;2023-01-29T15:09:49;56.13;;;21.60;;
22131;SDS011;11232;51.748;19.390;2023-01-29T15:17:26;50.87;;;20.57;;
22131;SDS011;11232;51.748;19.390;2023-01-29T15:19:53;51.83;;;19.80;;
22131;SDS011;11232;51.748;19.390;2023-01-29T15:22:21;51.33;;;20.53;;
22131;SDS011;11232;51.748;19.390;2023-01-29T15:25:05;49.07;;;19.67;;
22131;SDS011;11232;51.748;19.390;2023-01-29T15:27:31;52.37;;;20.97;;
22131;SDS011;11232;51.748;19.390;2023-01-29T15:29:58;56.80;;;21.40;;
22131;SDS011;11232;51.748;19.390;2023-01-29T15:32:26;58.50;;;20.67;;
22131;SDS011;11232;51.748;19.390;2023-01-29T15:34:54;53.93;;;22.67;;
22131;SDS011;11232;51.748;19.390;2023-01-29T15:37:24;58.00;;;21.13;;
22131;SDS011;11232;51.748;19.390;2023-01-29T15:39:50;51.60;;;20.37;;
22131;SDS011;11232;51.748;19.390;2023-01-29T15:42:16;57.73;;;22.50;;
22131;SDS011;11232;51.748;19.390;2023-01-29T15:44:47;64.20;;;24.67;;
22131;SDS011;11232;51.748;19.390;2023-01-29T15:47:13;60.83;;;23.30;;
22131;SDS011;11232;51.748;19.390;2023-01-29T15:49:39;59.77;;;23.10;;
22131;SDS011;11232;51.748;19.390;2023-01-29T15:52:07;60.93;;;24.83;;
22131;SDS011;11232;51.748;19.390;2023-01-29T15:54:34;63.20;;;23.37;;
22131;SDS011;11232;51.748;19.390;2023-01-29T15:57:00;60.60;;;23.03;;
22131;SDS011;11232;51.748;19.390;2023-01-29T15:59:43;68.60;;;24.90;;
22131;SDS011;11232;51.748;19.390;2023-01-29T16:02:24;60.70;;;23.17;;
22131;SDS011;11232;51.748;19.390;2023-01-29T16:04:52;63.13;;;23.97;;
22131;SDS011;11232;51.748;19.390;2023-01-29T16:07:18;61.47;;;23.77;;
22131;SDS011;11232;51.748;19.390;2023-01-29T16:09:44;62.37;;;23.33;;
22131;SDS011;11232;51.748;19.390;2023-01-29T16:12:11;63.60;;;23.33;;
22131;SDS011;11232;51.748;19.390;2023-01-29T16:14:37;65.57;;;23.23;;
22131;SDS011;11232;51.748;19.390;2023-01-29T16:19:58;63.07;;;24.73;;
22131;SDS011;11232;51.748;19.390;2023-01-29T16:22:28;62.07;;;22.60;;
22131;SDS011;11232;51.748;19.390;2023-01-29T16:24:55;53.87;;;21.63;;
22131;SDS011;11232;51.748;19.390;2023-01-29T16:27:22;63.37;;;24.57;;
22131;SDS011;11232;51.748;19.390;2023-01-29T16:29:49;62.67;;;23.03;;
22131;SDS011;11232;51.748;19.390;2023-01-29T16:32:15;57.93;;;22.53;;
22131;SDS011;11232;51.748;19.390;2023-01-29T16:34:43;55.53;;;21.17;;
22131;SDS011;11232;51.748;19.390;2023-01-29T16:37:17;61.67;;;22.73;;
22131;SDS011;11232;51.748;19.390;2023-01-29T16:39:44;51.73;;;20.43;;
22131;SDS011;11232;51.748;19.390;2023-01-29T16:44:44;51.00;;;21.10;;
22131;SDS011;11232;51.748;19.390;2023-01-29T16:47:11;51.93;;;20.33;;
22131;SDS011;11232;51.748;19.390;2023-01-29T16:52:18;65.83;;;23.27;;
22131;SDS011;11232;51.748;19.390;2023-01-29T16:54:44;57.97;;;22.87;;
22131;SDS011;11232;51.748;19.390;2023-01-29T16:57:15;61.03;;;22.50;;
22131;SDS011;11232;51.748;19.390;2023-01-29T16:59:42;57.90;;;23.37;;
22131;SDS011;11232;51.748;19.390;2023-01-29T17:04:47;59.23;;;23.13;;